This is the latest recevied weather packets stored in our database for station/object G7TKI-13. If no packets are shown the sender has not sent any weather packets the latest 10 day(s).
| Time | Temp. | Humidity | Pressure | Rain* | Wind** | Luminosity | Snow |
|---|---|---|---|---|---|---|---|
| 1777523179 | 8.89° C | 75% | 1027.7 hPa | 0 mm | - | 1 W/m² | - |
| 1777522575 | 8.89° C | 75% | 1027.5 hPa | 0 mm | - | 0 W/m² | - |
| 1777521967 | 8.89° C | 74% | 1027.5 hPa | 0 mm | - | 0 W/m² | - |
| 1777520139 | 8.33° C | 78% | 1027.6 hPa | 0 mm | - | 0 W/m² | - |
| 1777518935 | 7.78° C | 79% | 1027.6 hPa | 0 mm | - | 0 W/m² | - |
| 1777518378 | 8.33° C | 78% | 1027.6 hPa | 0 mm | - | 0 W/m² | - |
| 1777517727 | 8.33° C | 77% | 1027.6 hPa | 0 mm | - | 0 W/m² | - |
| 1777517139 | 8.89° C | 77% | 1027.7 hPa | 0 mm | - | 0 W/m² | - |
| 1777515903 | 7.78° C | 80% | 1027.9 hPa | 0 mm | - | 0 W/m² | - |
| 1777509839 | 7.22° C | 83% | 1028.4 hPa | 0 mm | - | 0 W/m² | - |
| 1777509221 | 7.22° C | 83% | 1028.6 hPa | 0 mm | - | 0 W/m² | - |
| 1777508619 | 7.22° C | 83% | 1028.7 hPa | 0 mm | - | 0 W/m² | - |
| 1777508017 | 7.78° C | 81% | 1028.7 hPa | 0 mm | - | 0 W/m² | - |
| 1777504991 | 8.89° C | 79% | 1028.5 hPa | 0 mm | - | 0 W/m² | - |
| 1777503166 | 8.89° C | 79% | 1028.5 hPa | 0 mm | - | 0 W/m² | - |
| 1777502559 | 8.89° C | 79% | 1028.3 hPa | 0 mm | - | 0 W/m² | - |
| 1777500143 | 9.44° C | 77% | 1028.4 hPa | 0 mm | - | 0 W/m² | - |
| 1777495294 | 10° C | 70% | 1028.5 hPa | 0 mm | - | 0 W/m² | - |
| 1777492239 | 11.11° C | 63% | 1028.1 hPa | 0 mm | - | 0 W/m² | - |
| 1777485275 | 15.56° C | 46% | 1027.7 hPa | 0 mm | - | 61 W/m² | - |
| 1777482239 | 16.11° C | 44% | 1028.3 hPa | 0 mm | - | 169 W/m² | - |
| 1777478018 | 17.22° C | 42% | 1028.5 hPa | 0 mm | - | 342 W/m² | - |
| 1777473150 | 18.33° C | 36% | 1028.8 hPa | 0 mm | - | 528 W/m² | - |
| 1777469455 | 17.78° C | 35% | 1028.6 hPa | 0 mm | - | 642 W/m² | - |
| 1777468239 | 17.78° C | 36% | 1029.2 hPa | 0 mm | - | 670 W/m² | - |
* Rain latest hour (hover to see other rain measurements)
** Current wind speed in m/s (hover to see current wind gust speed)